createdAt,value
2023-03-02T12:49:58.496Z,9.45
2023-03-02T12:52:33.771Z,11.07
2023-03-02T12:55:02.847Z,10.75
2023-03-02T12:57:30.186Z,10.57
2023-03-02T12:59:59.746Z,11.13
2023-03-02T13:02:31.541Z,10.13
2023-03-02T13:05:03.037Z,9.30
2023-03-02T13:07:42.746Z,9.73
2023-03-02T13:10:28.128Z,10.65
2023-03-02T13:12:59.405Z,11.20
2023-03-02T13:15:26.871Z,9.75
2023-03-02T13:18:02.750Z,9.73
2023-03-02T13:20:30.232Z,10.05
2023-03-02T13:22:57.022Z,9.73
2023-03-02T13:25:29.501Z,8.38
2023-03-02T13:28:00.832Z,8.85
2023-03-02T13:30:32.205Z,9.13
2023-03-02T13:33:04.257Z,9.35
2023-03-02T13:35:33.445Z,8.15
2023-03-02T13:38:29.622Z,8.80
2023-03-02T13:40:56.581Z,8.63
2023-03-02T13:43:29.098Z,9.07
2023-03-02T13:46:01.213Z,9.23
2023-03-02T13:48:28.998Z,9.40
2023-03-02T13:51:20.282Z,8.80
2023-03-02T13:53:58.449Z,8.60
2023-03-02T13:56:32.599Z,8.48
2023-03-02T13:58:59.703Z,8.50
2023-03-02T14:01:27.561Z,9.77
2023-03-02T14:03:55.886Z,9.63
2023-03-02T14:06:23.882Z,9.00
2023-03-02T14:08:50.458Z,9.07
2023-03-02T14:11:18.534Z,9.85
2023-03-02T14:13:48.071Z,9.32
2023-03-02T14:16:18.162Z,9.50
2023-03-02T14:18:52.522Z,9.52
2023-03-02T14:21:24.144Z,9.73
2023-03-02T14:23:52.708Z,9.38
2023-03-02T14:26:36.938Z,10.10
2023-03-02T14:29:07.593Z,9.52
2023-03-02T14:31:43.490Z,8.40
2023-03-02T14:34:14.296Z,10.10
2023-03-02T14:36:41.999Z,8.98
2023-03-02T14:39:19.104Z,10.13
2023-03-02T14:41:53.257Z,10.13
2023-03-02T14:44:21.212Z,9.18
2023-03-02T14:46:47.977Z,9.10
2023-03-02T14:49:14.670Z,9.70
2023-03-02T14:51:42.619Z,10.30
2023-03-02T14:54:15.150Z,9.02
2023-03-02T14:56:43.038Z,8.43
2023-03-02T14:59:12.822Z,8.38
2023-03-02T15:01:40.213Z,8.68
2023-03-02T15:04:07.020Z,9.77
2023-03-02T15:06:41.477Z,9.65
2023-03-02T15:09:08.699Z,8.52
2023-03-02T15:11:38.070Z,9.00
2023-03-02T15:14:07.339Z,8.38
2023-03-02T15:16:35.259Z,8.65
2023-03-02T15:19:01.943Z,7.93
2023-03-02T15:21:28.928Z,8.80
2023-03-02T15:23:57.989Z,8.00
2023-03-02T15:26:24.730Z,8.75
2023-03-02T15:28:54.130Z,9.32
2023-03-02T15:31:21.486Z,9.77
2023-03-02T15:33:48.412Z,8.57
2023-03-02T15:36:15.078Z,8.23
2023-03-02T15:38:41.762Z,8.63
2023-03-02T15:41:11.744Z,8.10
2023-03-02T15:43:38.722Z,8.05
2023-03-02T15:46:06.335Z,7.82
2023-03-02T15:48:35.015Z,8.40
2023-03-02T15:51:05.097Z,7.45
2023-03-02T15:53:37.445Z,7.35
2023-03-02T15:56:10.256Z,7.22
2023-03-02T15:58:37.056Z,7.28
2023-03-02T16:01:11.460Z,7.85
2023-03-02T16:03:38.724Z,7.20
2023-03-02T16:06:05.663Z,6.78
2023-03-02T16:08:32.343Z,7.15
2023-03-02T16:11:06.518Z,7.03
2023-03-02T16:13:33.702Z,6.20
2023-03-02T16:16:05.108Z,6.55
2023-03-02T16:18:32.443Z,5.93
2023-03-02T16:20:59.229Z,5.18
2023-03-02T16:23:30.942Z,5.70
2023-03-02T16:26:07.236Z,5.45
2023-03-02T16:28:34.009Z,5.75
2023-03-02T16:31:14.078Z,6.10
2023-03-02T16:33:41.822Z,5.43
2023-03-02T16:36:09.122Z,6.07
2023-03-02T16:38:37.036Z,5.70
2023-03-02T16:41:15.713Z,5.82
2023-03-02T16:43:52.712Z,6.40
2023-03-02T16:46:20.679Z,5.75
2023-03-02T16:48:48.388Z,5.30
2023-03-02T16:51:19.428Z,6.03
2023-03-02T16:53:46.375Z,6.00
2023-03-02T16:56:13.336Z,5.45
2023-03-02T16:58:42.048Z,5.80
2023-03-02T17:01:19.986Z,5.93
2023-03-02T17:03:47.938Z,5.97
2023-03-02T17:06:15.860Z,5.70
2023-03-02T17:08:42.709Z,6.07
2023-03-02T17:11:09.769Z,6.38
2023-03-02T17:13:39.363Z,6.40
2023-03-02T17:16:06.540Z,6.15
2023-03-02T17:18:33.579Z,5.53
2023-03-02T17:21:00.617Z,5.57
2023-03-02T17:23:27.819Z,5.82
2023-03-02T17:25:55.713Z,5.50
2023-03-02T17:28:22.401Z,5.97
2023-03-02T17:30:49.196Z,5.53
2023-03-02T17:33:16.976Z,5.85
2023-03-02T17:35:44.111Z,6.25
2023-03-02T17:38:14.559Z,5.97
2023-03-02T17:40:42.040Z,5.15
2023-03-02T17:43:08.752Z,5.55
2023-03-02T17:45:35.594Z,6.07
2023-03-02T17:48:02.418Z,5.57
2023-03-02T17:50:31.913Z,5.40
2023-03-02T17:52:59.833Z,5.43
2023-03-02T17:55:26.915Z,5.97
2023-03-02T17:57:53.525Z,4.82
2023-03-02T18:00:25.217Z,5.65
2023-03-02T18:02:52.352Z,5.75
2023-03-02T18:05:19.728Z,6.07
2023-03-02T18:07:46.707Z,5.82
2023-03-02T18:10:15.641Z,6.40
2023-03-02T18:12:45.169Z,5.72
2023-03-02T18:15:12.970Z,6.13
2023-03-02T18:17:39.709Z,6.28
2023-03-02T18:20:07.137Z,5.65
2023-03-02T18:22:33.825Z,5.63
2023-03-02T18:25:00.487Z,6.25
2023-03-02T18:27:27.390Z,6.00
2023-03-02T18:29:54.111Z,6.43
2023-03-02T18:32:21.046Z,6.50
2023-03-02T18:34:47.757Z,7.32
2023-03-02T18:37:14.370Z,6.03
2023-03-02T18:39:48.149Z,6.22
2023-03-02T18:42:14.785Z,5.70
2023-03-02T18:44:41.505Z,6.60
2023-03-02T18:47:08.721Z,6.55
2023-03-02T18:49:36.528Z,6.13
2023-03-02T18:52:07.779Z,7.15
2023-03-02T18:54:34.497Z,6.35
2023-03-02T18:57:01.781Z,6.75
2023-03-02T18:59:29.382Z,6.85
2023-03-02T19:01:56.202Z,6.80
2023-03-02T19:04:26.706Z,7.07
2023-03-02T19:06:55.816Z,6.38
2023-03-02T19:09:25.295Z,7.38
2023-03-02T19:11:51.896Z,7.85
2023-03-02T19:14:18.696Z,6.88
2023-03-02T19:16:46.196Z,6.63
2023-03-02T19:19:12.975Z,6.85
2023-03-02T19:21:39.808Z,7.78
2023-03-02T19:24:06.843Z,7.47
2023-03-02T19:26:33.592Z,7.28
2023-03-02T19:29:03.390Z,7.70
2023-03-02T19:31:31.474Z,7.30
2023-03-02T19:34:01.387Z,8.13
2023-03-02T19:36:28.034Z,7.60
2023-03-02T19:38:54.680Z,8.15
2023-03-02T19:41:21.546Z,8.15
2023-03-02T19:43:48.500Z,7.28
2023-03-02T19:46:16.349Z,8.20
2023-03-02T19:48:43.469Z,9.10
2023-03-02T19:51:12.122Z,8.80
2023-03-02T19:53:40.402Z,8.43
2023-03-02T19:56:11.836Z,8.30
2023-03-02T19:58:49.783Z,8.32
2023-03-02T20:01:21.911Z,7.60
2023-03-02T20:03:49.761Z,7.78
2023-03-02T20:06:19.660Z,8.52
2023-03-02T20:08:48.269Z,8.63
2023-03-02T20:11:15.932Z,8.20
2023-03-02T20:13:44.684Z,9.05
2023-03-02T20:16:12.955Z,8.98
2023-03-02T20:18:41.727Z,8.40
2023-03-02T20:21:08.548Z,8.27
2023-03-02T20:23:35.263Z,7.95
2023-03-02T20:26:02.396Z,8.02
2023-03-02T20:28:29.532Z,7.45
2023-03-02T20:30:58.711Z,9.57
2023-03-02T20:33:35.814Z,9.93
2023-03-02T20:36:04.017Z,9.00
2023-03-02T20:38:44.120Z,10.02
2023-03-02T20:41:11.991Z,9.48
2023-03-02T20:43:42.085Z,9.23
2023-03-02T20:46:10.195Z,7.93
2023-03-02T20:48:36.941Z,8.88
2023-03-02T20:51:04.021Z,8.93
2023-03-02T20:53:31.226Z,8.15
2023-03-02T20:55:58.147Z,10.20
2023-03-02T20:58:24.977Z,10.18
2023-03-02T21:00:51.899Z,9.45
2023-03-02T21:03:18.634Z,9.55
2023-03-02T21:05:45.376Z,10.48
2023-03-02T21:08:14.943Z,9.13
2023-03-02T21:10:42.748Z,11.13
2023-03-02T21:13:10.816Z,8.38
2023-03-02T21:15:37.873Z,9.10
2023-03-02T21:18:05.498Z,8.27
2023-03-02T21:20:34.237Z,7.40
2023-03-02T21:23:00.945Z,8.13
2023-03-02T21:25:28.514Z,8.95
2023-03-02T21:27:56.300Z,8.45
2023-03-02T21:30:29.922Z,8.80
2023-03-02T21:32:57.350Z,9.18
2023-03-02T21:35:24.726Z,8.48
2023-03-02T21:37:54.817Z,9.70
2023-03-02T21:40:27.052Z,8.40
2023-03-02T21:42:54.095Z,7.63
2023-03-02T21:45:22.629Z,8.18
2023-03-02T21:47:50.132Z,8.68
2023-03-02T21:50:20.697Z,7.80
2023-03-02T21:52:47.493Z,9.13
2023-03-02T21:55:15.813Z,9.02
2023-03-02T21:57:42.852Z,8.90
2023-03-02T22:00:12.638Z,9.80
2023-03-02T22:02:39.525Z,9.48
2023-03-02T22:05:09.044Z,9.63
2023-03-02T22:07:35.719Z,9.52
2023-03-02T22:10:02.602Z,10.18
2023-03-02T22:12:29.235Z,10.00
2023-03-02T22:14:55.949Z,9.95
2023-03-02T22:17:24.831Z,10.30
2023-03-02T22:19:52.461Z,10.40
2023-03-02T22:22:31.319Z,10.55
2023-03-02T22:24:58.028Z,10.77
2023-03-02T22:27:32.134Z,10.05
2023-03-02T22:30:00.045Z,10.75
2023-03-02T22:32:30.649Z,10.18
2023-03-02T22:35:02.275Z,10.50
2023-03-02T22:37:33.512Z,9.90
2023-03-02T22:40:07.354Z,10.35
2023-03-02T22:42:33.988Z,9.88
2023-03-02T22:45:22.585Z,10.43
2023-03-02T22:47:51.643Z,10.80
2023-03-02T22:50:30.267Z,11.57
2023-03-02T22:52:58.544Z,10.50
2023-03-02T22:55:31.807Z,9.68
2023-03-02T22:57:58.640Z,10.70
2023-03-02T23:00:35.403Z,11.32
2023-03-02T23:03:02.105Z,9.80
2023-03-02T23:05:31.157Z,11.23
2023-03-02T23:08:19.036Z,10.48
2023-03-02T23:10:49.546Z,9.68
2023-03-02T23:13:18.368Z,10.23
2023-03-02T23:15:46.297Z,10.52
2023-03-02T23:18:24.236Z,10.00
2023-03-02T23:20:51.858Z,11.57
2023-03-02T23:23:20.745Z,11.38
2023-03-02T23:25:48.048Z,9.95
2023-03-02T23:28:15.068Z,11.63
2023-03-02T23:30:41.943Z,10.30
2023-03-02T23:33:08.836Z,11.48
2023-03-02T23:35:35.818Z,10.82
2023-03-02T23:38:02.441Z,10.85
2023-03-02T23:40:36.691Z,9.63
2023-03-02T23:43:03.345Z,9.80
2023-03-02T23:45:30.111Z,10.10
2023-03-02T23:47:58.053Z,10.45
2023-03-02T23:50:27.677Z,9.40
2023-03-02T23:52:57.324Z,9.95
2023-03-02T23:55:24.051Z,9.55
2023-03-02T23:57:50.796Z,10.10
